createdAt,value
2023-03-06T00:01:01.161Z,101445.50
2023-03-06T00:03:29.587Z,101442.97
2023-03-06T00:05:59.650Z,101444.75
2023-03-06T00:08:30.018Z,101451.00
2023-03-06T00:10:59.028Z,101449.28
2023-03-06T00:13:30.774Z,101452.91
2023-03-06T00:16:03.969Z,101449.50
2023-03-06T00:18:32.286Z,101454.06
2023-03-06T00:21:00.813Z,101456.00
2023-03-06T00:23:29.548Z,101464.97
2023-03-06T00:25:57.779Z,101465.88
2023-03-06T00:28:25.992Z,101460.63
2023-03-06T00:30:54.332Z,101455.44
2023-03-06T00:33:22.566Z,101459.09
2023-03-06T00:35:51.130Z,101463.56
2023-03-06T00:38:19.505Z,101468.06
2023-03-06T00:40:47.780Z,101474.31
2023-03-06T00:43:16.396Z,101465.56
2023-03-06T00:45:44.652Z,101463.97
2023-03-06T00:48:12.962Z,101458.00
2023-03-06T00:50:41.160Z,101466.97
2023-03-06T00:53:09.396Z,101474.13
2023-03-06T00:55:37.906Z,101468.91
2023-03-06T00:58:06.190Z,101468.06
2023-03-06T01:00:34.463Z,101476.03
2023-03-06T01:03:02.767Z,101473.38
2023-03-06T01:05:35.427Z,101475.94
2023-03-06T01:08:04.136Z,101478.56
2023-03-06T01:10:33.148Z,101485.72
2023-03-06T01:13:01.381Z,101480.56
2023-03-06T01:15:29.648Z,101487.81
2023-03-06T01:17:57.875Z,101490.59
2023-03-06T01:20:26.274Z,101492.53
2023-03-06T01:22:56.328Z,101492.53
2023-03-06T01:25:26.769Z,101499.63
2023-03-06T01:27:55.128Z,101507.59
2023-03-06T01:30:23.492Z,101498.84
2023-03-06T01:32:51.736Z,101505.97
2023-03-06T01:35:20.254Z,101514.78
2023-03-06T01:37:48.765Z,101509.56
2023-03-06T01:40:16.982Z,101505.19
2023-03-06T01:42:46.821Z,101514.91
2023-03-06T01:45:15.086Z,101510.53
2023-03-06T01:47:43.451Z,101512.38
2023-03-06T01:50:13.628Z,101522.19
2023-03-06T01:52:50.790Z,101516.06
2023-03-06T01:55:27.005Z,101521.44
2023-03-06T01:57:58.940Z,101525.91
2023-03-06T02:00:29.543Z,101530.34
2023-03-06T02:03:08.119Z,101538.34
2023-03-06T02:05:37.544Z,101540.19
2023-03-06T02:08:07.753Z,101542.03
2023-03-06T02:10:36.295Z,101532.41
2023-03-06T02:13:05.118Z,101543.97
2023-03-06T02:15:33.441Z,101546.66
2023-03-06T02:18:02.008Z,101547.59
2023-03-06T02:20:40.655Z,101555.50
2023-03-06T02:23:37.876Z,101563.50
2023-03-06T02:26:07.898Z,101558.22
2023-03-06T02:28:36.278Z,101573.19
2023-03-06T02:31:04.670Z,101569.75
2023-03-06T02:33:32.941Z,101569.75
2023-03-06T02:36:06.748Z,101576.00
2023-03-06T02:38:42.055Z,101583.09
2023-03-06T02:41:10.965Z,101585.78
2023-03-06T02:43:41.127Z,101585.84
2023-03-06T02:46:09.393Z,101592.03
2023-03-06T02:48:37.729Z,101586.75
2023-03-06T02:51:06.032Z,101590.28
2023-03-06T02:53:34.274Z,101593.84
2023-03-06T02:56:02.552Z,101602.69
2023-03-06T02:58:30.776Z,101600.06
2023-03-06T03:00:59.067Z,101611.53
2023-03-06T03:03:27.336Z,101611.56
2023-03-06T03:05:55.617Z,101608.94
2023-03-06T03:08:23.890Z,101618.63
2023-03-06T03:10:52.173Z,101616.88
2023-03-06T03:13:20.538Z,101607.22
2023-03-06T03:16:05.951Z,101609.00
2023-03-06T03:18:34.705Z,101614.31
2023-03-06T03:21:03.311Z,101618.75
2023-03-06T03:23:31.557Z,101620.50
2023-03-06T03:26:11.350Z,101626.69
2023-03-06T03:28:39.545Z,101621.47
2023-03-06T03:31:10.052Z,101622.38
2023-03-06T03:33:38.612Z,101622.41
2023-03-06T03:36:08.705Z,101619.78
2023-03-06T03:38:37.466Z,101631.28
2023-03-06T03:41:06.414Z,101634.84
2023-03-06T03:43:34.644Z,101644.56
2023-03-06T03:46:03.176Z,101641.06
2023-03-06T03:48:31.440Z,101640.22
2023-03-06T03:51:10.213Z,101647.28
2023-03-06T03:53:38.734Z,101652.56
2023-03-06T03:56:07.326Z,101657.84
2023-03-06T03:58:35.620Z,101663.13
2023-03-06T04:01:03.826Z,101666.69
2023-03-06T04:03:32.328Z,101670.22
2023-03-06T04:06:01.002Z,101666.69
2023-03-06T04:08:29.790Z,101672.84
2023-03-06T04:10:58.153Z,101671.97
2023-03-06T04:13:26.855Z,101667.59
2023-03-06T04:15:56.635Z,101679.00
2023-03-06T04:18:25.011Z,101677.25
2023-03-06T04:20:53.311Z,101681.66
2023-03-06T04:23:25.026Z,101679.00
2023-03-06T04:25:53.401Z,101675.50
2023-03-06T04:28:21.823Z,101685.19
2023-03-06T04:30:50.256Z,101677.28
2023-03-06T04:33:18.531Z,101688.69
2023-03-06T04:35:46.783Z,101682.53
2023-03-06T04:38:15.179Z,101686.03
2023-03-06T04:40:44.943Z,101693.94
2023-03-06T04:43:13.373Z,101695.66
2023-03-06T04:45:41.624Z,101698.31
2023-03-06T04:48:10.398Z,101696.53
2023-03-06T04:50:39.018Z,101698.28
2023-03-06T04:53:07.277Z,101705.31
2023-03-06T04:55:35.636Z,101706.16
2023-03-06T04:58:03.978Z,101713.19
2023-03-06T05:00:32.491Z,101718.47
2023-03-06T05:03:02.164Z,101710.56
2023-03-06T05:05:31.057Z,101716.66
2023-03-06T05:07:59.363Z,101712.28
2023-03-06T05:10:27.816Z,101727.19
2023-03-06T05:12:56.021Z,101724.53
2023-03-06T05:15:24.322Z,101732.44
2023-03-06T05:17:52.653Z,101724.50
2023-03-06T05:20:21.096Z,101725.41
2023-03-06T05:22:49.347Z,101728.88
2023-03-06T05:25:17.682Z,101731.53
2023-03-06T05:27:45.898Z,101729.75
2023-03-06T05:30:15.721Z,101735.88
2023-03-06T05:32:44.204Z,101739.38
2023-03-06T05:35:19.967Z,101741.97
2023-03-06T05:37:49.369Z,101742.84
2023-03-06T05:40:19.168Z,101746.38
2023-03-06T05:42:47.374Z,101748.09
2023-03-06T05:45:15.628Z,101751.59
2023-03-06T05:47:43.940Z,101747.19
2023-03-06T05:50:14.778Z,101745.41
2023-03-06T05:52:43.057Z,101749.81
2023-03-06T05:55:13.481Z,101748.91
2023-03-06T05:57:41.814Z,101755.03
2023-03-06T06:00:11.018Z,101769.84
2023-03-06T06:02:39.229Z,101774.13
2023-03-06T06:05:08.055Z,101768.03
2023-03-06T06:07:36.487Z,101771.59
2023-03-06T06:10:06.503Z,101781.28
2023-03-06T06:12:35.046Z,101769.91
2023-03-06T06:15:03.316Z,101772.53
2023-03-06T06:17:32.732Z,101772.53
2023-03-06T06:20:01.028Z,101779.53
2023-03-06T06:22:29.362Z,101780.38
2023-03-06T06:24:57.679Z,101782.09
2023-03-06T06:27:25.917Z,101775.91
2023-03-06T06:29:54.221Z,101769.78
2023-03-06T06:32:22.507Z,101772.34
2023-03-06T06:34:51.063Z,101767.97
2023-03-06T06:37:19.320Z,101776.78
2023-03-06T06:39:47.552Z,101783.81
2023-03-06T06:42:31.009Z,101782.94
2023-03-06T06:45:02.464Z,101788.16
2023-03-06T06:47:30.876Z,101791.66
2023-03-06T06:49:59.196Z,101795.13
2023-03-06T06:52:27.521Z,101800.31
2023-03-06T06:54:55.844Z,101806.41
2023-03-06T06:57:24.110Z,101805.47
2023-03-06T06:59:53.911Z,101797.56
2023-03-06T07:02:22.769Z,101800.94
2023-03-06T07:05:03.181Z,101796.56
2023-03-06T07:07:35.322Z,101800.09
2023-03-06T07:10:06.468Z,101800.09
2023-03-06T07:12:35.932Z,101791.31
2023-03-06T07:15:06.085Z,101786.94
2023-03-06T07:17:34.303Z,101795.72
2023-03-06T07:20:02.546Z,101797.44
2023-03-06T07:22:38.713Z,101793.94
2023-03-06T07:25:17.229Z,101799.06
2023-03-06T07:27:51.051Z,101809.56
2023-03-06T07:30:22.256Z,101806.94
2023-03-06T07:32:54.024Z,101809.56
2023-03-06T07:35:22.550Z,101812.22
2023-03-06T07:37:52.009Z,101813.94
2023-03-06T07:40:21.390Z,101812.06
2023-03-06T07:42:49.852Z,101813.75
2023-03-06T07:45:18.266Z,101819.03
2023-03-06T07:47:46.596Z,101820.00
2023-03-06T07:50:15.012Z,101822.63
2023-03-06T07:52:43.271Z,101820.88
2023-03-06T07:55:12.858Z,101827.00
2023-03-06T07:57:41.168Z,101826.16
2023-03-06T08:00:14.220Z,101827.03
2023-03-06T08:02:43.307Z,101823.56
2023-03-06T08:05:16.101Z,101828.78
2023-03-06T08:07:45.906Z,101825.25
2023-03-06T08:10:15.963Z,101827.03
2023-03-06T08:12:44.343Z,101828.75
2023-03-06T08:15:13.513Z,101829.50
2023-03-06T08:17:42.036Z,101828.56
2023-03-06T08:20:11.559Z,101829.44
2023-03-06T08:22:40.273Z,101828.56
2023-03-06T08:25:09.207Z,101823.31
2023-03-06T08:27:37.463Z,101830.31
2023-03-06T08:30:06.396Z,101824.13
2023-03-06T08:32:38.108Z,101821.50
2023-03-06T08:35:07.091Z,101825.84
2023-03-06T08:37:35.370Z,101823.22
2023-03-06T08:40:05.466Z,101818.84
2023-03-06T08:42:33.826Z,101823.25
2023-03-06T08:45:02.009Z,101821.50
2023-03-06T08:47:30.263Z,101828.50
2023-03-06T08:50:00.585Z,101832.09
2023-03-06T08:52:29.287Z,101834.75
2023-03-06T08:54:58.841Z,101834.75
2023-03-06T08:57:27.056Z,101839.13
2023-03-06T08:59:55.274Z,101842.63
2023-03-06T09:02:23.498Z,101846.13
2023-03-06T09:04:51.981Z,101839.16
2023-03-06T09:07:20.272Z,101844.38
2023-03-06T09:09:48.506Z,101845.19
2023-03-06T09:12:17.251Z,101843.44
2023-03-06T09:14:45.458Z,101852.13
2023-03-06T09:17:13.687Z,101845.09
2023-03-06T09:19:41.893Z,101842.44
2023-03-06T09:22:10.130Z,101841.56
2023-03-06T09:24:38.336Z,101846.78
2023-03-06T09:27:06.555Z,101851.94
2023-03-06T09:29:34.754Z,101843.97
2023-03-06T09:32:02.969Z,101840.47
2023-03-06T09:34:31.305Z,101847.41
2023-03-06T09:36:59.625Z,101845.66
2023-03-06T09:39:28.256Z,101841.22
2023-03-06T09:42:01.313Z,101843.84
2023-03-06T09:44:32.519Z,101847.41
2023-03-06T09:47:20.483Z,101850.09
2023-03-06T09:50:22.247Z,101848.41
2023-03-06T09:52:59.317Z,101846.59
2023-03-06T09:55:31.917Z,101852.59
2023-03-06T09:58:15.667Z,101848.97
2023-03-06T10:00:48.355Z,101860.34
2023-03-06T10:03:45.937Z,101852.53
2023-03-06T10:06:49.811Z,101855.97
2023-03-06T10:09:21.051Z,101861.16
2023-03-06T10:12:04.586Z,101857.66
2023-03-06T10:14:48.987Z,101860.25
2023-03-06T10:17:21.441Z,101861.06
2023-03-06T10:19:50.669Z,101874.13
2023-03-06T10:22:33.801Z,101868.75
2023-03-06T10:25:08.049Z,101873.13
2023-03-06T10:27:43.612Z,101872.22
2023-03-06T10:30:23.826Z,101860.81
2023-03-06T10:32:59.586Z,101867.78
2023-03-06T10:35:45.042Z,101860.84
2023-03-06T10:38:27.882Z,101863.56
2023-03-06T10:41:00.966Z,101863.63
2023-03-06T10:43:29.163Z,101868.06
2023-03-06T10:45:57.517Z,101869.03
2023-03-06T10:48:29.204Z,101860.34
2023-03-06T10:51:21.108Z,101856.03
2023-03-06T10:53:59.963Z,101854.34
2023-03-06T10:56:32.314Z,101842.16
2023-03-06T10:59:30.181Z,101849.28
2023-03-06T11:02:26.474Z,101839.72
2023-03-06T11:04:57.154Z,101834.47
2023-03-06T11:07:28.494Z,101832.75
2023-03-06T11:09:59.428Z,101837.16
2023-03-06T11:12:43.169Z,101839.78
2023-03-06T11:15:24.414Z,101836.31
2023-03-06T11:17:56.600Z,101839.81
2023-03-06T11:20:50.074Z,101838.91
2023-03-06T11:23:43.184Z,101838.84
2023-03-06T11:26:17.251Z,101843.16
2023-03-06T11:28:57.638Z,101837.91
2023-03-06T11:31:30.482Z,101844.09
2023-03-06T11:34:13.323Z,101840.59
2023-03-06T11:36:52.930Z,101832.66
2023-03-06T11:39:21.286Z,101836.16
2023-03-06T11:42:12.176Z,101830.84
2023-03-06T11:45:07.753Z,101838.66
2023-03-06T11:47:51.175Z,101832.59
2023-03-06T11:50:46.461Z,101834.28
2023-03-06T11:53:20.665Z,101839.47
2023-03-06T11:56:08.291Z,101842.09
2023-03-06T11:59:11.393Z,101841.19
2023-03-06T12:01:55.614Z,101840.28
2023-03-06T12:04:35.953Z,101841.97
2023-03-06T12:07:32.628Z,101842.78
2023-03-06T12:10:28.772Z,101840.22
2023-03-06T12:13:33.342Z,101846.34
2023-03-06T12:16:37.173Z,101845.47
2023-03-06T12:19:19.495Z,101848.09
2023-03-06T12:22:09.192Z,101852.47
2023-03-06T12:24:57.507Z,101859.47
2023-03-06T12:27:57.027Z,101856.78
2023-03-06T12:31:03.265Z,101862.91
2023-03-06T12:34:06.517Z,101853.28
2023-03-06T12:37:00.344Z,101858.59
2023-03-06T12:39:34.155Z,101855.91
2023-03-06T12:42:35.472Z,101852.41
2023-03-06T12:45:24.998Z,101853.22
2023-03-06T12:47:57.511Z,101854.09
2023-03-06T12:50:25.684Z,101851.41
2023-03-06T12:52:57.410Z,101852.28
2023-03-06T12:55:26.953Z,101853.16
2023-03-06T12:57:55.482Z,101850.53
2023-03-06T13:00:36.035Z,101851.41
2023-03-06T13:03:50.566Z,101861.91
2023-03-06T13:06:55.018Z,101856.63
2023-03-06T13:09:55.197Z,101856.63
2023-03-06T13:12:26.129Z,101854.91
2023-03-06T13:15:00.331Z,101854.88
2023-03-06T13:17:35.626Z,101860.13
2023-03-06T13:20:35.979Z,101859.28
2023-03-06T13:23:41.504Z,101863.72
2023-03-06T13:26:32.258Z,101863.78
2023-03-06T13:29:00.618Z,101868.19
2023-03-06T13:31:31.104Z,101859.47
2023-03-06T13:34:02.269Z,101860.34
2023-03-06T13:36:36.254Z,101857.78
2023-03-06T13:39:09.372Z,101856.09
2023-03-06T13:41:55.207Z,101856.03
2023-03-06T13:44:26.151Z,101861.28
2023-03-06T13:47:02.941Z,101861.34
2023-03-06T13:49:31.902Z,101863.94
2023-03-06T13:52:27.633Z,101870.09
2023-03-06T13:55:15.694Z,101866.66
2023-03-06T13:58:00.698Z,101861.41
2023-03-06T14:01:03.252Z,101866.69
2023-03-06T14:03:57.282Z,101868.41
2023-03-06T14:06:38.206Z,101862.28
2023-03-06T14:09:09.234Z,101870.22
2023-03-06T14:11:38.875Z,101873.78
2023-03-06T14:14:07.142Z,101872.09
2023-03-06T14:16:49.939Z,101871.25
2023-03-06T14:19:20.071Z,101872.16
2023-03-06T14:21:56.768Z,101879.19
2023-03-06T14:24:36.471Z,101881.84
2023-03-06T14:27:05.259Z,101879.22
2023-03-06T14:29:34.773Z,101893.16
2023-03-06T14:32:03.616Z,101898.41
2023-03-06T14:34:39.582Z,101902.81
2023-03-06T14:37:19.878Z,101900.22
2023-03-06T14:39:48.768Z,101904.66
2023-03-06T14:42:21.753Z,101902.94
2023-03-06T14:45:00.765Z,101903.03
2023-03-06T14:47:32.240Z,101910.97
2023-03-06T14:50:26.089Z,101911.00
2023-03-06T14:53:15.186Z,101909.31
2023-03-06T14:55:54.190Z,101920.81
2023-03-06T14:58:27.402Z,101917.31
2023-03-06T15:00:57.370Z,101927.03
2023-03-06T15:03:46.565Z,101927.97
2023-03-06T15:06:19.771Z,101923.69
2023-03-06T15:08:52.230Z,101919.34
2023-03-06T15:11:20.461Z,101925.59
2023-03-06T15:14:02.518Z,101925.63
2023-03-06T15:16:33.218Z,101923.06
2023-03-06T15:19:06.001Z,101928.41
2023-03-06T15:21:40.144Z,101922.34
2023-03-06T15:24:31.903Z,101933.81
2023-03-06T15:27:17.446Z,101928.59
2023-03-06T15:29:45.911Z,101926.94
2023-03-06T15:32:27.804Z,101922.59
2023-03-06T15:35:33.127Z,101929.66
2023-03-06T15:38:02.884Z,101926.19
2023-03-06T15:40:32.772Z,101935.91
2023-03-06T15:43:01.388Z,101942.97
2023-03-06T15:45:30.972Z,101946.50
2023-03-06T15:47:59.188Z,101950.94
2023-03-06T15:50:29.743Z,101961.50
2023-03-06T15:52:58.006Z,101961.59
2023-03-06T15:55:27.229Z,101954.59
2023-03-06T15:57:59.625Z,101961.59
2023-03-06T16:00:36.400Z,101965.16
2023-03-06T16:03:05.396Z,101963.47
2023-03-06T16:05:33.700Z,101978.41
2023-03-06T16:08:02.194Z,101989.88
2023-03-06T16:10:32.792Z,101993.41
2023-03-06T16:13:17.074Z,101996.06
2023-03-06T16:15:51.204Z,101999.63
2023-03-06T16:18:20.013Z,101998.75
2023-03-06T16:20:48.722Z,102000.53
2023-03-06T16:23:17.360Z,102007.59
2023-03-06T16:25:49.488Z,102009.38
2023-03-06T16:28:18.171Z,102014.69
2023-03-06T16:30:47.028Z,102010.28
2023-03-06T16:33:15.790Z,102007.66
2023-03-06T16:35:47.238Z,102011.16
2023-03-06T16:38:16.480Z,102013.81
2023-03-06T16:40:45.048Z,102016.44
2023-03-06T16:43:14.331Z,102016.50
2023-03-06T16:45:43.356Z,102019.19
2023-03-06T16:48:17.752Z,102012.22
2023-03-06T16:50:46.282Z,102019.28
2023-03-06T16:53:14.786Z,102018.38
2023-03-06T16:55:43.083Z,102014.00
2023-03-06T16:58:11.296Z,102020.19
2023-03-06T17:00:39.679Z,102016.66
2023-03-06T17:03:08.618Z,102021.97
2023-03-06T17:05:39.711Z,102017.56
2023-03-06T17:08:07.976Z,102021.09
2023-03-06T17:10:36.274Z,102025.50
2023-03-06T17:13:04.578Z,102023.75
2023-03-06T17:15:32.921Z,102023.75
2023-03-06T17:18:01.229Z,102021.09
2023-03-06T17:20:29.475Z,102022.84
2023-03-06T17:22:57.838Z,102029.91
2023-03-06T17:25:26.236Z,102023.72
2023-03-06T17:27:54.488Z,102020.22
2023-03-06T17:30:22.799Z,102019.31
2023-03-06T17:32:51.288Z,102019.31
2023-03-06T17:35:19.633Z,102017.53
2023-03-06T17:37:47.878Z,102010.50
2023-03-06T17:40:16.513Z,102017.53
2023-03-06T17:42:44.751Z,102022.81
2023-03-06T17:45:13.633Z,102016.66
2023-03-06T17:47:41.940Z,102027.19
2023-03-06T17:50:11.082Z,102026.28
2023-03-06T17:52:39.883Z,102020.13
2023-03-06T17:55:08.701Z,102024.50
2023-03-06T17:57:36.928Z,102020.06
2023-03-06T18:00:06.724Z,102020.03
2023-03-06T18:02:35.021Z,102020.88
2023-03-06T18:05:03.596Z,102020.81
2023-03-06T18:07:32.045Z,102026.13
2023-03-06T18:10:00.298Z,102021.66
2023-03-06T18:12:28.525Z,102020.78
2023-03-06T18:14:58.032Z,102024.28
2023-03-06T18:17:26.344Z,102026.94
2023-03-06T18:19:54.689Z,102022.47
2023-03-06T18:22:22.867Z,102031.28
2023-03-06T18:24:51.507Z,102025.13
2023-03-06T18:27:20.343Z,102032.19
2023-03-06T18:29:49.194Z,102026.88
2023-03-06T18:32:17.613Z,102033.09
2023-03-06T18:34:45.944Z,102034.88
2023-03-06T18:37:14.180Z,102040.16
2023-03-06T18:39:42.502Z,102034.88
2023-03-06T18:42:10.775Z,102041.84
2023-03-06T18:44:38.981Z,102040.03
2023-03-06T18:47:07.562Z,102040.78
2023-03-06T18:49:35.824Z,102037.22
2023-03-06T18:52:04.083Z,102033.69
2023-03-06T18:54:32.377Z,102028.41
2023-03-06T18:57:00.811Z,102031.88
2023-03-06T18:59:29.040Z,102038.84
2023-03-06T19:01:58.665Z,102034.34
2023-03-06T19:04:27.954Z,102027.19
2023-03-06T19:06:56.181Z,102031.50
2023-03-06T19:09:24.496Z,102031.38
2023-03-06T19:11:54.801Z,102025.06
2023-03-06T19:14:23.223Z,102023.25
2023-03-06T19:16:51.668Z,102024.97
2023-03-06T19:19:19.944Z,102023.19
2023-03-06T19:21:48.254Z,102026.59
2023-03-06T19:24:16.761Z,102016.78
2023-03-06T19:26:45.029Z,102016.72
2023-03-06T19:29:13.371Z,102019.31
2023-03-06T19:31:42.485Z,102020.16
2023-03-06T19:34:10.763Z,102021.91
2023-03-06T19:36:41.503Z,102019.22
2023-03-06T19:39:10.392Z,102011.28
2023-03-06T19:41:38.653Z,102014.94
2023-03-06T19:44:06.986Z,102010.66
2023-03-06T19:46:37.052Z,102017.84
2023-03-06T19:49:12.998Z,102012.66
2023-03-06T19:51:41.273Z,102014.59
2023-03-06T19:54:14.407Z,102019.03
2023-03-06T19:56:42.749Z,102030.63
2023-03-06T19:59:11.349Z,102028.91
2023-03-06T20:01:40.528Z,102033.38
2023-03-06T20:04:08.973Z,102031.75
2023-03-06T20:06:40.555Z,102040.69
2023-03-06T20:09:10.324Z,102045.19
2023-03-06T20:11:39.708Z,102044.34
2023-03-06T20:14:09.766Z,102045.28
2023-03-06T20:16:38.506Z,102039.13
2023-03-06T20:19:07.786Z,102028.56
2023-03-06T20:21:38.444Z,102030.25
2023-03-06T20:24:08.997Z,102030.19
2023-03-06T20:26:38.926Z,102028.25
2023-03-06T20:29:07.186Z,102019.31
2023-03-06T20:31:35.404Z,102018.28
2023-03-06T20:34:04.506Z,102019.00
2023-03-06T20:36:40.101Z,102022.53
2023-03-06T20:39:12.607Z,102017.25
2023-03-06T20:41:41.537Z,102003.84
2023-03-06T20:44:13.509Z,101998.53
2023-03-06T20:46:42.232Z,101996.69
2023-03-06T20:49:11.917Z,101990.56
2023-03-06T20:51:41.613Z,101984.44
2023-03-06T20:54:13.828Z,101980.78
2023-03-06T20:56:43.704Z,101978.81
2023-03-06T20:59:15.812Z,101968.00
2023-03-06T21:01:46.423Z,101966.81
2023-03-06T21:04:16.171Z,101952.44
2023-03-06T21:06:47.464Z,101960.44
2023-03-06T21:09:17.875Z,101953.13
2023-03-06T21:11:46.552Z,101952.72
2023-03-06T21:14:15.196Z,101945.28
2023-03-06T21:16:45.240Z,101942.50
2023-03-06T21:19:13.767Z,101938.94
2023-03-06T21:21:42.191Z,101940.97
2023-03-06T21:24:11.248Z,101940.00
2023-03-06T21:26:39.574Z,101937.34
2023-03-06T21:29:09.125Z,101939.59
2023-03-06T21:31:37.539Z,101923.38
2023-03-06T21:34:07.115Z,101922.94
2023-03-06T21:36:35.498Z,101912.75
2023-03-06T21:39:06.969Z,101924.69
2023-03-06T21:41:35.825Z,101914.41
2023-03-06T21:44:06.657Z,101912.09
2023-03-06T21:46:35.309Z,101904.97
2023-03-06T21:49:05.497Z,101907.50
2023-03-06T21:51:34.167Z,101908.63
2023-03-06T21:54:03.852Z,101903.97
2023-03-06T21:56:34.153Z,101898.31
2023-03-06T21:59:02.546Z,101903.31
2023-03-06T22:01:31.072Z,101898.31
2023-03-06T22:04:00.703Z,101895.34
2023-03-06T22:06:31.265Z,101894.34
2023-03-06T22:09:00.984Z,101893.19
2023-03-06T22:11:37.662Z,101897.34
2023-03-06T22:14:07.066Z,101894.47
2023-03-06T22:16:35.377Z,101895.63
2023-03-06T22:19:03.606Z,101892.22
2023-03-06T22:21:32.119Z,101887.06
2023-03-06T22:24:01.157Z,101884.41
2023-03-06T22:26:30.811Z,101883.50
2023-03-06T22:28:59.018Z,101882.63
2023-03-06T22:31:29.870Z,101878.09
2023-03-06T22:34:00.523Z,101879.69
2023-03-06T22:36:31.310Z,101868.97
2023-03-06T22:39:01.953Z,101872.44
2023-03-06T22:41:31.060Z,101867.22
2023-03-06T22:44:01.497Z,101871.63
2023-03-06T22:46:29.744Z,101875.19
2023-03-06T22:49:01.784Z,101865.53
2023-03-06T22:51:30.653Z,101859.84
2023-03-06T22:53:59.352Z,101863.41
2023-03-06T22:56:27.626Z,101864.56
2023-03-06T22:58:55.958Z,101858.47
2023-03-06T23:01:26.867Z,101872.88
2023-03-06T23:03:57.879Z,101854.84
2023-03-06T23:06:33.964Z,101854.59
2023-03-06T23:09:19.104Z,101851.13
2023-03-06T23:11:47.670Z,101853.09
2023-03-06T23:14:17.964Z,101861.88
2023-03-06T23:16:46.466Z,101857.94
2023-03-06T23:19:16.310Z,101862.53
2023-03-06T23:21:44.938Z,101861.25
2023-03-06T23:24:13.288Z,101858.38
2023-03-06T23:26:41.600Z,101859.34
2023-03-06T23:29:09.811Z,101859.47
2023-03-06T23:31:38.265Z,101857.13
2023-03-06T23:34:06.938Z,101860.25
2023-03-06T23:36:35.148Z,101860.34
2023-03-06T23:39:03.407Z,101851.38
2023-03-06T23:41:31.646Z,101854.88
2023-03-06T23:44:00.178Z,101849.44
2023-03-06T23:46:28.460Z,101849.28
2023-03-06T23:48:56.719Z,101853.53
2023-03-06T23:51:25.371Z,101852.88
2023-03-06T23:53:59.173Z,101849.59
2023-03-06T23:56:29.105Z,101841.03
2023-03-06T23:58:57.404Z,101851.78
